Time;durP1;ratioP1;P1;durP2;ratioP2;P2;SDS_P1;SDS_P2;PMS_P1;PMS_P2;Temp;Humidity;BMP_temperature;BMP_pressure;BME280_temperature;BME280_humidity;BME280_pressure;Samples;Min_cycle;Max_cycle;Signal;HPM_P1;HPM_P2
2022/01/07 00:01:50;;;;;;;47.83;17.93;;;;;;;;;;5005672;28;20495;-80
2022/01/07 00:04:18;;;;;;;45.50;15.10;;;;;;;;;;5005409;28;20464;-81
2022/01/07 00:06:45;;;;;;;41.47;15.23;;;;;;;;;;5005314;28;20462;-81
2022/01/07 00:09:12;;;;;;;42.33;14.60;;;;;;;;;;5007992;28;20490;-81
2022/01/07 00:11:40;;;;;;;40.90;14.43;;;;;;;;;;5000899;28;20520;-81
2022/01/07 00:14:07;;;;;;;48.13;16.03;;;;;;;;;;5006038;28;20975;-81
2022/01/07 00:16:35;;;;;;;47.40;14.83;;;;;;;;;;5008019;28;20457;-82
2022/01/07 00:19:02;;;;;;;45.17;14.57;;;;;;;;;;5005524;28;21212;-81
2022/01/07 00:21:29;;;;;;;45.17;14.70;;;;;;;;;;5004383;28;20488;-82
2022/01/07 00:23:56;;;;;;;41.50;14.80;;;;;;;;;;5008026;28;20463;-82
2022/01/07 00:26:23;;;;;;;40.97;15.33;;;;;;;;;;5008434;28;20880;-81
2022/01/07 00:28:52;;;;;;;53.37;16.73;;;;;;;;;;5010349;28;20447;-81
2022/01/07 00:31:19;;;;;;;48.57;15.50;;;;;;;;;;5009536;28;20454;-82
2022/01/07 00:33:46;;;;;;;39.77;14.37;;;;;;;;;;5007161;28;20846;-81
2022/01/07 00:36:13;;;;;;;44.13;15.13;;;;;;;;;;5006354;28;20849;-82
2022/01/07 00:38:40;;;;;;;44.57;14.80;;;;;;;;;;5004418;28;20521;-82
2022/01/07 00:41:07;;;;;;;51.47;15.27;;;;;;;;;;5011380;28;20940;-82
2022/01/07 00:43:35;;;;;;;46.73;15.03;;;;;;;;;;5007463;28;20897;-82
2022/01/07 00:46:03;;;;;;;37.00;14.50;;;;;;;;;;5012311;28;20468;-81
2022/01/07 00:48:30;;;;;;;54.67;15.60;;;;;;;;;;5011121;28;20525;-82
2022/01/07 00:50:58;;;;;;;45.20;14.47;;;;;;;;;;5011870;28;20841;-82
2022/01/07 00:53:25;;;;;;;38.13;14.47;;;;;;;;;;5012610;28;20839;-83
2022/01/07 00:55:52;;;;;;;42.00;14.77;;;;;;;;;;5011379;28;20554;-82
2022/01/07 00:58:19;;;;;;;45.60;16.47;;;;;;;;;;5012004;28;20466;-82
2022/01/07 01:00:46;;;;;;;48.60;15.70;;;;;;;;;;5008794;28;20783;-82
2022/01/07 01:03:15;;;;;;;60.53;15.63;;;;;;;;;;5014511;28;20467;-81
2022/01/07 01:05:44;;;;;;;43.40;14.67;;;;;;;;;;5010261;28;20482;-81
2022/01/07 01:08:12;;;;;;;42.70;15.27;;;;;;;;;;5004708;28;20907;-82
2022/01/07 01:10:39;;;;;;;53.87;15.47;;;;;;;;;;5010357;28;20521;-81
2022/01/07 01:13:06;;;;;;;44.70;14.57;;;;;;;;;;5013158;28;20463;-82
2022/01/07 01:15:34;;;;;;;41.23;14.80;;;;;;;;;;5011158;28;20495;-82
2022/01/07 01:18:01;;;;;;;43.17;16.17;;;;;;;;;;5011529;28;21031;-81
2022/01/07 01:20:31;;;;;;;48.13;15.33;;;;;;;;;;5004406;28;20530;-83
2022/01/07 01:22:59;;;;;;;41.40;15.43;;;;;;;;;;5001748;28;20459;-83
2022/01/07 01:25:26;;;;;;;39.83;15.27;;;;;;;;;;5008356;28;20467;-83
2022/01/07 01:27:53;;;;;;;52.40;17.17;;;;;;;;;;5006572;28;20467;-81
2022/01/07 01:30:20;;;;;;;45.83;14.90;;;;;;;;;;5004264;28;21413;-82
2022/01/07 01:32:48;;;;;;;40.53;15.33;;;;;;;;;;5007185;28;20590;-82
2022/01/07 01:35:15;;;;;;;49.07;15.17;;;;;;;;;;5001821;28;20459;-82
2022/01/07 01:37:43;;;;;;;42.07;14.70;;;;;;;;;;5014182;28;20459;-81
2022/01/07 01:40:11;;;;;;;42.87;14.07;;;;;;;;;;5024572;28;20487;-82
2022/01/07 01:42:38;;;;;;;47.43;15.67;;;;;;;;;;5006450;28;20494;-82
2022/01/07 01:45:06;;;;;;;44.57;14.63;;;;;;;;;;5001370;28;20988;-82
2022/01/07 01:47:33;;;;;;;42.17;14.73;;;;;;;;;;4997691;28;20996;-82
2022/01/07 01:50:00;;;;;;;39.27;14.17;;;;;;;;;;5005752;28;20485;-82
2022/01/07 01:52:28;;;;;;;41.73;14.10;;;;;;;;;;5005046;28;20443;-82
2022/01/07 01:54:56;;;;;;;38.43;13.00;;;;;;;;;;5003749;28;20550;-83
2022/01/07 01:57:23;;;;;;;42.97;13.37;;;;;;;;;;5012660;28;20462;-82
2022/01/07 01:59:50;;;;;;;34.20;13.53;;;;;;;;;;5000357;28;20483;-82
2022/01/07 02:02:18;;;;;;;47.53;14.07;;;;;;;;;;5003038;28;20497;-82
2022/01/07 02:04:45;;;;;;;32.87;12.53;;;;;;;;;;5007544;28;20467;-81
2022/01/07 02:07:13;;;;;;;39.30;13.53;;;;;;;;;;5004277;28;20463;-82
2022/01/07 02:09:40;;;;;;;34.57;12.63;;;;;;;;;;5008838;28;20496;-83
2022/01/07 02:12:10;;;;;;;38.70;13.77;;;;;;;;;;5009747;28;20443;-82
2022/01/07 02:14:38;;;;;;;36.70;13.20;;;;;;;;;;5009931;28;20982;-83
2022/01/07 02:17:08;;;;;;;31.37;13.27;;;;;;;;;;5010122;28;20887;-83
2022/01/07 02:19:37;;;;;;;44.00;14.27;;;;;;;;;;5007751;28;20470;-83
2022/01/07 02:22:05;;;;;;;36.73;12.97;;;;;;;;;;5010348;28;20595;-82
2022/01/07 02:24:34;;;;;;;40.70;13.73;;;;;;;;;;5006785;28;20495;-84
2022/01/07 02:27:01;;;;;;;45.53;14.90;;;;;;;;;;5007855;28;20955;-83
2022/01/07 02:29:28;;;;;;;37.93;14.13;;;;;;;;;;5005944;28;20947;-82
2022/01/07 02:31:55;;;;;;;42.60;14.07;;;;;;;;;;5001113;28;20444;-82
2022/01/07 02:34:23;;;;;;;46.30;14.07;;;;;;;;;;5010573;28;20473;-82
2022/01/07 02:36:51;;;;;;;44.23;14.03;;;;;;;;;;5009336;28;20493;-82
2022/01/07 02:39:18;;;;;;;40.87;13.20;;;;;;;;;;5005658;28;21025;-82
2022/01/07 02:41:47;;;;;;;31.63;13.67;;;;;;;;;;5007517;28;20484;-83
2022/01/07 02:44:15;;;;;;;36.87;13.80;;;;;;;;;;5009569;28;20502;-83
2022/01/07 02:46:42;;;;;;;46.80;15.80;;;;;;;;;;5008170;28;20558;-84
2022/01/07 02:49:10;;;;;;;41.20;14.17;;;;;;;;;;5008931;28;20479;-82
2022/01/07 02:51:38;;;;;;;43.27;15.07;;;;;;;;;;5006173;28;20451;-82
2022/01/07 02:54:07;;;;;;;45.70;14.20;;;;;;;;;;5008480;28;21195;-83
2022/01/07 02:56:34;;;;;;;39.93;14.87;;;;;;;;;;5010657;28;20471;-82
2022/01/07 02:59:01;;;;;;;42.30;13.83;;;;;;;;;;5012914;28;20463;-82
2022/01/07 03:01:29;;;;;;;42.93;13.23;;;;;;;;;;5009422;28;20487;-82
2022/01/07 03:03:56;;;;;;;33.10;13.50;;;;;;;;;;5011168;28;20473;-81
2022/01/07 03:06:23;;;;;;;35.57;12.13;;;;;;;;;;5013647;28;21045;-81
2022/01/07 03:08:51;;;;;;;38.93;14.17;;;;;;;;;;5009000;28;20459;-81
2022/01/07 03:11:28;;;;;;;40.43;13.90;;;;;;;;;;5014052;23;20496;-85
2022/01/07 03:13:55;;;;;;;35.40;13.37;;;;;;;;;;4982812;28;20535;-84
2022/01/07 03:16:22;;;;;;;37.67;12.57;;;;;;;;;;4986763;28;20485;-85
2022/01/07 03:18:52;;;;;;;34.63;13.07;;;;;;;;;;4987669;28;20551;-85
2022/01/07 03:21:20;;;;;;;35.90;13.40;;;;;;;;;;4981400;28;20487;-85
2022/01/07 03:23:49;;;;;;;36.80;12.67;;;;;;;;;;4987660;28;20914;-85
2022/01/07 03:26:17;;;;;;;37.63;12.30;;;;;;;;;;4988792;28;20511;-85
2022/01/07 03:28:54;;;;;;;48.80;12.67;;;;;;;;;;4983064;28;20547;-85
2022/01/07 03:31:21;;;;;;;32.93;13.73;;;;;;;;;;4986189;28;20484;-85
2022/01/07 03:33:48;;;;;;;33.23;12.83;;;;;;;;;;4985686;28;20465;-85
2022/01/07 03:36:15;;;;;;;39.57;13.20;;;;;;;;;;4983944;28;20460;-84
2022/01/07 03:38:43;;;;;;;35.37;13.93;;;;;;;;;;4982899;28;20563;-85
2022/01/07 03:41:10;;;;;;;39.63;13.57;;;;;;;;;;4983981;28;20552;-84
2022/01/07 03:43:37;;;;;;;32.70;12.50;;;;;;;;;;4981460;28;20522;-84
2022/01/07 03:46:06;;;;;;;37.80;12.63;;;;;;;;;;4987687;28;20248;-85
2022/01/07 03:48:33;;;;;;;35.67;13.30;;;;;;;;;;4986185;28;20559;-85
2022/01/07 03:51:00;;;;;;;47.60;13.50;;;;;;;;;;4986412;28;21061;-84
2022/01/07 03:53:28;;;;;;;38.20;12.67;;;;;;;;;;4980185;28;20912;-85
2022/01/07 03:55:55;;;;;;;25.30;10.07;;;;;;;;;;4983708;28;20538;-85
2022/01/07 03:58:22;;;;;;;30.10;10.37;;;;;;;;;;4986296;28;20464;-84
2022/01/07 04:00:49;;;;;;;27.93;10.17;;;;;;;;;;4978254;28;20580;-85
2022/01/07 04:03:19;;;;;;;27.03;9.60;;;;;;;;;;4983153;28;20484;-85
2022/01/07 04:05:47;;;;;;;29.73;9.00;;;;;;;;;;4983033;28;20549;-85
2022/01/07 04:08:14;;;;;;;26.97;8.37;;;;;;;;;;4981714;28;20455;-85
2022/01/07 04:10:42;;;;;;;23.70;8.47;;;;;;;;;;4982305;28;21024;-84
2022/01/07 04:13:09;;;;;;;23.70;8.30;;;;;;;;;;4987081;28;20492;-84
2022/01/07 04:15:36;;;;;;;29.57;9.10;;;;;;;;;;4982008;28;20542;-84
2022/01/07 04:18:04;;;;;;;26.43;8.33;;;;;;;;;;4985794;28;20552;-84
2022/01/07 04:20:33;;;;;;;23.97;8.97;;;;;;;;;;4980059;28;20574;-84
2022/01/07 04:23:00;;;;;;;29.77;9.80;;;;;;;;;;4985091;28;20347;-84
2022/01/07 04:25:28;;;;;;;29.60;9.90;;;;;;;;;;4989072;28;20201;-85
2022/01/07 04:27:58;;;;;;;30.00;9.40;;;;;;;;;;4988354;28;20213;-84
2022/01/07 04:30:27;;;;;;;30.73;8.90;;;;;;;;;;4984197;28;21010;-84
2022/01/07 04:32:54;;;;;;;25.50;9.53;;;;;;;;;;4988794;28;20484;-85
2022/01/07 04:35:21;;;;;;;30.10;8.87;;;;;;;;;;4993157;28;20532;-84
2022/01/07 04:37:50;;;;;;;25.93;8.57;;;;;;;;;;4994559;28;20480;-85
2022/01/07 04:40:18;;;;;;;25.60;8.77;;;;;;;;;;4986699;28;20508;-85
2022/01/07 04:42:46;;;;;;;25.03;8.03;;;;;;;;;;4991258;28;20545;-84
2022/01/07 04:45:14;;;;;;;29.30;8.57;;;;;;;;;;4987006;28;20236;-85
2022/01/07 04:47:41;;;;;;;20.37;8.03;;;;;;;;;;4989991;28;20444;-85
2022/01/07 04:50:10;;;;;;;27.50;9.90;;;;;;;;;;4986735;28;20539;-85
2022/01/07 04:52:38;;;;;;;30.63;8.70;;;;;;;;;;4989595;28;20228;-85
2022/01/07 04:55:08;;;;;;;25.63;8.37;;;;;;;;;;4989269;28;20568;-85
2022/01/07 04:57:35;;;;;;;22.40;8.27;;;;;;;;;;4982044;28;20842;-85
2022/01/07 05:00:02;;;;;;;30.57;9.70;;;;;;;;;;4983735;28;20501;-84
2022/01/07 05:02:29;;;;;;;21.57;8.27;;;;;;;;;;4978447;28;20969;-85
2022/01/07 05:04:56;;;;;;;27.33;8.50;;;;;;;;;;4985712;28;20547;-85
2022/01/07 05:07:24;;;;;;;21.30;8.53;;;;;;;;;;4982358;28;20538;-85
2022/01/07 05:09:51;;;;;;;22.67;7.97;;;;;;;;;;4985253;28;20503;-85
2022/01/07 05:12:20;;;;;;;21.83;7.43;;;;;;;;;;4985834;28;20554;-84
2022/01/07 05:14:47;;;;;;;27.90;7.10;;;;;;;;;;4984042;28;20562;-84
2022/01/07 05:17:14;;;;;;;21.13;6.93;;;;;;;;;;4977820;28;20557;-84
2022/01/07 05:19:41;;;;;;;16.43;6.00;;;;;;;;;;4982238;28;20555;-85
2022/01/07 05:22:08;;;;;;;20.10;6.67;;;;;;;;;;4982845;28;20566;-84
2022/01/07 05:24:35;;;;;;;23.77;8.17;;;;;;;;;;4989779;28;20547;-84
2022/01/07 05:27:03;;;;;;;19.87;7.23;;;;;;;;;;4989582;28;20466;-84
2022/01/07 05:29:34;;;;;;;27.60;7.80;;;;;;;;;;4977855;28;20253;-84
2022/01/07 05:32:02;;;;;;;25.37;8.27;;;;;;;;;;4983042;28;20762;-84
2022/01/07 05:34:29;;;;;;;16.43;7.67;;;;;;;;;;4981830;28;20300;-84
2022/01/07 05:36:56;;;;;;;15.97;6.70;;;;;;;;;;4984196;28;20883;-85
2022/01/07 05:39:24;;;;;;;22.67;7.63;;;;;;;;;;4980470;28;20216;-85
2022/01/07 05:41:51;;;;;;;17.47;6.40;;;;;;;;;;4979263;28;20295;-85
2022/01/07 05:44:18;;;;;;;13.17;6.07;;;;;;;;;;4980840;28;20466;-84
2022/01/07 05:46:47;;;;;;;18.07;6.13;;;;;;;;;;4984677;28;20457;-84
2022/01/07 05:49:14;;;;;;;19.97;5.40;;;;;;;;;;4979338;28;20244;-85
2022/01/07 05:51:41;;;;;;;20.20;5.90;;;;;;;;;;4983179;28;20490;-84
2022/01/07 05:54:08;;;;;;;18.73;5.60;;;;;;;;;;4981638;28;20637;-85
2022/01/07 05:56:36;;;;;;;22.07;6.00;;;;;;;;;;4978314;28;20494;-85
2022/01/07 05:59:03;;;;;;;16.70;6.23;;;;;;;;;;4981239;28;20745;-83
2022/01/07 06:01:30;;;;;;;22.10;6.63;;;;;;;;;;4987671;28;20472;-83
2022/01/07 06:03:59;;;;;;;22.20;5.77;;;;;;;;;;4983096;28;20300;-83
2022/01/07 06:06:27;;;;;;;14.97;4.20;;;;;;;;;;4981650;28;20468;-83
2022/01/07 06:08:54;;;;;;;13.80;4.43;;;;;;;;;;4986863;28;20468;-84
2022/01/07 06:11:21;;;;;;;15.97;5.47;;;;;;;;;;4983082;28;20508;-83
2022/01/07 06:13:48;;;;;;;16.80;5.50;;;;;;;;;;4983333;28;20459;-83
2022/01/07 06:16:16;;;;;;;17.07;6.10;;;;;;;;;;4984005;28;20465;-84
2022/01/07 06:18:50;;;;;;;18.70;6.20;;;;;;;;;;4981195;28;20235;-83
2022/01/07 06:21:19;;;;;;;16.37;4.67;;;;;;;;;;4984483;28;20989;-84
2022/01/07 06:23:46;;;;;;;10.93;4.33;;;;;;;;;;4987099;28;20241;-83
2022/01/07 06:26:13;;;;;;;15.57;5.53;;;;;;;;;;4984911;28;20721;-83
2022/01/07 06:28:41;;;;;;;12.63;5.43;;;;;;;;;;4985932;28;20556;-83
2022/01/07 06:31:08;;;;;;;14.77;5.43;;;;;;;;;;4983715;28;20248;-84
2022/01/07 06:33:35;;;;;;;15.00;4.93;;;;;;;;;;4987833;28;20511;-84
2022/01/07 06:36:02;;;;;;;23.53;6.73;;;;;;;;;;4987509;28;21029;-84
2022/01/07 06:38:31;;;;;;;15.37;5.13;;;;;;;;;;4984021;28;20393;-84
2022/01/07 06:40:58;;;;;;;16.20;6.23;;;;;;;;;;4984103;28;20294;-84
2022/01/07 06:43:26;;;;;;;14.23;4.93;;;;;;;;;;4987004;28;20241;-84
2022/01/07 06:45:53;;;;;;;16.60;5.70;;;;;;;;;;4981985;28;21048;-84
2022/01/07 06:48:20;;;;;;;12.77;5.10;;;;;;;;;;4982050;28;20469;-83
2022/01/07 06:50:47;;;;;;;12.97;5.40;;;;;;;;;;4982396;28;20259;-83
2022/01/07 06:53:15;;;;;;;18.43;5.07;;;;;;;;;;4980597;28;20209;-83
2022/01/07 06:55:43;;;;;;;14.57;5.43;;;;;;;;;;4984898;28;20307;-84
2022/01/07 06:58:11;;;;;;;13.80;5.60;;;;;;;;;;4988505;28;20244;-84
2022/01/07 07:00:38;;;;;;;18.10;6.57;;;;;;;;;;4988756;28;20233;-83
2022/01/07 07:03:05;;;;;;;17.37;6.53;;;;;;;;;;4984960;28;20595;-83
2022/01/07 07:05:32;;;;;;;19.03;7.40;;;;;;;;;;4988761;28;20695;-83
2022/01/07 07:07:59;;;;;;;19.60;6.53;;;;;;;;;;4988082;28;20546;-84
2022/01/07 07:10:27;;;;;;;23.20;7.00;;;;;;;;;;4984874;28;20413;-83
2022/01/07 07:12:55;;;;;;;24.50;7.20;;;;;;;;;;4988548;28;20464;-83
2022/01/07 07:15:23;;;;;;;18.03;6.77;;;;;;;;;;4986709;28;20223;-83
2022/01/07 07:17:50;;;;;;;17.77;6.80;;;;;;;;;;4989774;28;20210;-84
2022/01/07 07:20:18;;;;;;;19.50;5.90;;;;;;;;;;4988783;28;20297;-84
2022/01/07 07:22:45;;;;;;;15.00;6.33;;;;;;;;;;4987518;28;20239;-84
2022/01/07 07:25:13;;;;;;;13.77;5.80;;;;;;;;;;4985051;28;20504;-84
2022/01/07 07:27:41;;;;;;;18.13;7.00;;;;;;;;;;4983373;28;20645;-83
2022/01/07 07:30:11;;;;;;;20.43;9.80;;;;;;;;;;4983690;28;20364;-83
2022/01/07 07:32:39;;;;;;;15.73;7.93;;;;;;;;;;4989199;28;20461;-83
2022/01/07 07:36:26;;;;;;;17.00;8.57;;;;;;;;;;4986303;28;20221;-84
2022/01/07 07:38:01;;;;;;;25.67;8.27;;;;;;;;;;4988552;28;20209;-84
2022/01/07 07:40:29;;;;;;;15.97;7.60;;;;;;;;;;4984855;28;20236;-84
2022/01/07 07:42:56;;;;;;;19.37;7.57;;;;;;;;;;4985212;28;20319;-84
2022/01/07 07:45:25;;;;;;;15.33;5.97;;;;;;;;;;4982121;28;20232;-84
2022/01/07 07:47:52;;;;;;;17.03;6.67;;;;;;;;;;4984432;28;20244;-83
2022/01/07 07:50:19;;;;;;;23.80;7.70;;;;;;;;;;4988247;28;20228;-83
2022/01/07 07:52:46;;;;;;;14.37;5.47;;;;;;;;;;4984162;28;20284;-83
2022/01/07 07:55:14;;;;;;;12.13;5.20;;;;;;;;;;4990069;28;20292;-83
2022/01/07 07:57:41;;;;;;;18.80;5.40;;;;;;;;;;4985748;28;20259;-84
2022/01/07 08:00:08;;;;;;;20.50;7.13;;;;;;;;;;4983488;28;20564;-83
2022/01/07 08:02:37;;;;;;;18.97;6.37;;;;;;;;;;4981469;28;20790;-83
2022/01/07 08:05:04;;;;;;;17.73;7.97;;;;;;;;;;4983146;28;20292;-84
2022/01/07 08:07:32;;;;;;;16.73;6.80;;;;;;;;;;4987705;28;20217;-83
2022/01/07 08:09:59;;;;;;;19.80;7.90;;;;;;;;;;4986277;28;20714;-84
2022/01/07 08:12:39;;;;;;;19.60;8.27;;;;;;;;;;4982756;28;20277;-83
2022/01/07 08:17:53;;;;;;;19.17;7.07;;;;;;;;;;4982184;28;20691;-83
2022/01/07 08:20:20;;;;;;;14.80;6.77;;;;;;;;;;4979286;28;20232;-83
2022/01/07 08:22:47;;;;;;;15.27;6.80;;;;;;;;;;4984545;28;20908;-83
2022/01/07 08:25:15;;;;;;;16.57;7.13;;;;;;;;;;4981267;28;20197;-82
2022/01/07 08:27:42;;;;;;;17.83;7.23;;;;;;;;;;4978235;28;20496;-83
2022/01/07 08:30:15;;;;;;;21.07;7.80;;;;;;;;;;4981854;28;20331;-82
2022/01/07 08:35:29;;;;;;;22.40;8.07;;;;;;;;;;4981933;28;20208;-82
2022/01/07 08:37:56;;;;;;;19.87;8.17;;;;;;;;;;4985593;28;20327;-84
2022/01/07 08:40:24;;;;;;;22.80;8.10;;;;;;;;;;4991677;28;20618;-84
2022/01/07 08:42:52;;;;;;;16.63;7.37;;;;;;;;;;4989907;28;20220;-82
2022/01/07 08:45:19;;;;;;;24.43;7.90;;;;;;;;;;4982215;28;20697;-82
2022/01/07 08:47:47;;;;;;;22.63;7.77;;;;;;;;;;4984979;28;20207;-83
2022/01/07 08:50:14;;;;;;;16.63;7.07;;;;;;;;;;4986715;28;20323;-84
2022/01/07 08:52:42;;;;;;;19.40;6.37;;;;;;;;;;4985361;28;20229;-82
2022/01/07 08:55:10;;;;;;;16.00;6.50;;;;;;;;;;4996253;28;20463;-83
2022/01/07 08:57:37;;;;;;;18.33;7.43;;;;;;;;;;4999290;28;20205;-84
2022/01/07 09:00:05;;;;;;;16.27;7.43;;;;;;;;;;4990309;28;20774;-83
2022/01/07 09:02:32;;;;;;;20.87;8.10;;;;;;;;;;4993320;28;20212;-84
2022/01/07 09:04:59;;;;;;;22.50;8.60;;;;;;;;;;4989029;28;20361;-83
2022/01/07 09:07:26;;;;;;;20.97;9.07;;;;;;;;;;4997629;28;20236;-84
2022/01/07 09:09:55;;;;;;;22.23;8.40;;;;;;;;;;5010132;23;20582;-82
2022/01/07 09:12:22;;;;;;;20.77;8.67;;;;;;;;;;4999441;28;20738;-83
2022/01/07 09:14:49;;;;;;;15.40;7.00;;;;;;;;;;5001959;28;20216;-82
2022/01/07 09:17:16;;;;;;;16.93;7.00;;;;;;;;;;5005641;28;20200;-83
2022/01/07 09:19:44;;;;;;;13.83;6.80;;;;;;;;;;5000061;28;20208;-82
2022/01/07 09:22:11;;;;;;;19.43;7.00;;;;;;;;;;4985510;28;20205;-82
2022/01/07 09:24:38;;;;;;;21.20;7.53;;;;;;;;;;4984347;28;20724;-82
2022/01/07 09:27:07;;;;;;;12.77;6.63;;;;;;;;;;4982635;28;20654;-82
2022/01/07 09:32:36;;;;;;;20.53;8.07;;;;;;;;;;4955615;28;20217;-83
2022/01/07 09:35:03;;;;;;;15.40;6.90;;;;;;;;;;4983792;28;20611;-82
2022/01/07 09:37:30;;;;;;;16.33;7.33;;;;;;;;;;4985109;28;20201;-82
2022/01/07 09:40:00;;;;;;;18.53;7.23;;;;;;;;;;4980973;28;20236;-82
2022/01/07 09:42:29;;;;;;;12.70;6.67;;;;;;;;;;4982127;28;20213;-83
2022/01/07 09:44:57;;;;;;;18.97;5.77;;;;;;;;;;4985360;28;20296;-83
2022/01/07 09:47:25;;;;;;;12.10;5.80;;;;;;;;;;4985999;28;20300;-83
2022/01/07 09:49:52;;;;;;;18.00;7.03;;;;;;;;;;4989832;28;20303;-83
2022/01/07 09:52:20;;;;;;;16.13;5.73;;;;;;;;;;4983200;28;20665;-81
2022/01/07 09:54:49;;;;;;;12.27;5.23;;;;;;;;;;4981811;28;20212;-83
2022/01/07 09:57:16;;;;;;;14.30;6.07;;;;;;;;;;4986660;28;20281;-82
2022/01/07 09:59:52;;;;;;;16.43;6.07;;;;;;;;;;4984586;28;20316;-83
2022/01/07 10:02:19;;;;;;;9.87;5.33;;;;;;;;;;4985901;28;20236;-83
2022/01/07 10:04:46;;;;;;;12.30;5.33;;;;;;;;;;4987737;28;20234;-81
2022/01/07 10:07:16;;;;;;;12.50;5.17;;;;;;;;;;4992606;28;20201;-82
2022/01/07 10:09:57;;;;;;;12.20;5.57;;;;;;;;;;4985861;28;20244;-82
2022/01/07 10:12:24;;;;;;;15.20;6.10;;;;;;;;;;4984575;28;20216;-82
2022/01/07 10:15:09;;;;;;;17.47;6.83;;;;;;;;;;4983294;28;20202;-82
2022/01/07 10:17:36;;;;;;;19.77;6.60;;;;;;;;;;4982929;28;20243;-82
2022/01/07 10:20:04;;;;;;;15.67;6.27;;;;;;;;;;4986268;28;20668;-81
2022/01/07 10:22:48;;;;;;;15.60;6.70;;;;;;;;;;4998186;28;20259;-82
2022/01/07 10:25:20;;;;;;;17.83;8.13;;;;;;;;;;4985155;28;20231;-83
2022/01/07 10:27:48;;;;;;;16.40;8.00;;;;;;;;;;4988551;28;20730;-80
2022/01/07 10:30:18;;;;;;;20.17;8.33;;;;;;;;;;4992039;28;20224;-81
2022/01/07 10:32:46;;;;;;;31.20;10.43;;;;;;;;;;4991690;28;20622;-81
2022/01/07 10:35:14;;;;;;;43.03;13.13;;;;;;;;;;4991034;28;20234;-81
2022/01/07 10:37:49;;;;;;;22.57;9.77;;;;;;;;;;4989358;28;20213;-82
2022/01/07 10:40:23;;;;;;;14.43;5.43;;;;;;;;;;4990260;28;20221;-82
2022/01/07 10:42:54;;;;;;;16.00;6.27;;;;;;;;;;4993047;28;20223;-82
2022/01/07 10:45:24;;;;;;;15.10;6.60;;;;;;;;;;4988676;28;20233;-83
2022/01/07 10:47:52;;;;;;;12.37;6.07;;;;;;;;;;4985024;28;20276;-82
2022/01/07 10:50:21;;;;;;;18.33;5.80;;;;;;;;;;4987690;28;20673;-82
2022/01/07 10:52:48;;;;;;;12.80;5.20;;;;;;;;;;4987396;28;20239;-81
2022/01/07 10:55:18;;;;;;;8.80;4.67;;;;;;;;;;4990622;28;20558;-82
2022/01/07 10:57:46;;;;;;;13.10;5.30;;;;;;;;;;4986865;28;20216;-83
2022/01/07 11:00:14;;;;;;;10.53;5.60;;;;;;;;;;4989604;28;20320;-82
2022/01/07 11:02:43;;;;;;;13.63;5.80;;;;;;;;;;4991243;28;20666;-81
2022/01/07 11:05:10;;;;;;;18.13;6.30;;;;;;;;;;4989309;28;20247;-82
2022/01/07 11:07:37;;;;;;;10.83;5.70;;;;;;;;;;4989044;28;20213;-81
2022/01/07 11:10:05;;;;;;;13.60;5.40;;;;;;;;;;4986960;28;20773;-82
2022/01/07 11:12:33;;;;;;;8.47;4.70;;;;;;;;;;4986587;28;20212;-82
2022/01/07 11:15:00;;;;;;;13.47;4.93;;;;;;;;;;4994729;28;20248;-82
2022/01/07 11:17:29;;;;;;;16.07;6.33;;;;;;;;;;4987448;28;20249;-83
2022/01/07 11:20:03;;;;;;;18.30;6.50;;;;;;;;;;4988727;28;20287;-82
2022/01/07 11:22:31;;;;;;;14.73;5.87;;;;;;;;;;4997449;28;20204;-81
2022/01/07 11:25:10;;;;;;;13.33;5.73;;;;;;;;;;5007664;28;20288;-81
2022/01/07 11:27:48;;;;;;;14.37;6.83;;;;;;;;;;5001289;28;20206;-82
2022/01/07 11:30:17;;;;;;;18.87;6.97;;;;;;;;;;4993478;28;20639;-80
2022/01/07 11:32:45;;;;;;;13.43;6.57;;;;;;;;;;4989179;28;20584;-81
2022/01/07 11:35:45;;;;;;;19.00;7.00;;;;;;;;;;4988248;28;20210;-82
2022/01/07 11:38:40;;;;;;;16.87;6.27;;;;;;;;;;4989230;28;20231;-81
2022/01/07 11:41:11;;;;;;;14.83;6.63;;;;;;;;;;4994782;28;20233;-82
2022/01/07 11:43:39;;;;;;;24.33;8.47;;;;;;;;;;4988178;28;20247;-81
2022/01/07 11:46:23;;;;;;;20.77;8.87;;;;;;;;;;4990417;28;20205;-81
2022/01/07 11:48:50;;;;;;;27.47;10.97;;;;;;;;;;4986921;28;20201;-81
2022/01/07 11:51:18;;;;;;;24.77;9.50;;;;;;;;;;4988710;28;20229;-79
2022/01/07 11:54:03;;;;;;;22.87;8.73;;;;;;;;;;4990195;28;20280;-81
2022/01/07 11:56:32;;;;;;;33.07;12.70;;;;;;;;;;4984522;28;20214;-80
2022/01/07 11:59:01;;;;;;;25.83;10.90;;;;;;;;;;4988852;28;20222;-81
2022/01/07 12:01:29;;;;;;;19.83;9.83;;;;;;;;;;4984797;28;20297;-81
2022/01/07 12:03:57;;;;;;;26.70;9.37;;;;;;;;;;4988088;28;20247;-81
2022/01/07 12:06:44;;;;;;;17.80;7.10;;;;;;;;;;4987960;28;20220;-82
2022/01/07 12:09:16;;;;;;;22.73;7.10;;;;;;;;;;4988736;28;20259;-82
2022/01/07 12:11:45;;;;;;;9.53;4.70;;;;;;;;;;4989915;28;20236;-82
2022/01/07 12:14:15;;;;;;;16.53;5.23;;;;;;;;;;4986877;28;20212;-82
2022/01/07 12:16:43;;;;;;;18.30;6.23;;;;;;;;;;4983238;28;20241;-82
2022/01/07 12:19:46;;;;;;;9.07;4.37;;;;;;;;;;4985086;28;20214;-83
2022/01/07 12:22:16;;;;;;;11.13;4.60;;;;;;;;;;4982589;28;20304;-82
2022/01/07 12:24:43;;;;;;;13.43;5.30;;;;;;;;;;4984783;28;20879;-84
2022/01/07 12:27:16;;;;;;;7.33;3.80;;;;;;;;;;4986296;28;20209;-83
2022/01/07 12:29:44;;;;;;;6.47;3.57;;;;;;;;;;4987763;28;20204;-83
2022/01/07 12:32:13;;;;;;;9.13;3.40;;;;;;;;;;4984587;28;20211;-83
2022/01/07 12:34:43;;;;;;;7.47;3.10;;;;;;;;;;4986983;28;20220;-83
2022/01/07 12:37:11;;;;;;;9.70;4.10;;;;;;;;;;4984664;28;20213;-83
2022/01/07 12:39:39;;;;;;;10.57;3.97;;;;;;;;;;4982189;28;20245;-82
2022/01/07 12:42:07;;;;;;;11.60;4.20;;;;;;;;;;4985898;28;20216;-83
2022/01/07 12:44:37;;;;;;;12.00;5.17;;;;;;;;;;4981213;28;20262;-82
2022/01/07 12:47:04;;;;;;;18.53;6.47;;;;;;;;;;4985603;28;20205;-82
2022/01/07 12:49:35;;;;;;;19.57;7.07;;;;;;;;;;4986111;28;20209;-82
2022/01/07 12:52:03;;;;;;;13.73;6.03;;;;;;;;;;4987642;28;20712;-82
2022/01/07 12:54:30;;;;;;;12.23;5.87;;;;;;;;;;4990817;28;20193;-83
2022/01/07 12:56:57;;;;;;;14.20;5.50;;;;;;;;;;4999854;28;20295;-83
2022/01/07 12:59:26;;;;;;;10.03;5.57;;;;;;;;;;5004574;28;20212;-81
2022/01/07 13:01:54;;;;;;;11.97;6.20;;;;;;;;;;5007667;28;20269;-81
2022/01/07 13:04:23;;;;;;;15.13;6.13;;;;;;;;;;4996623;28;20498;-82
2022/01/07 13:06:51;;;;;;;17.77;6.00;;;;;;;;;;4995328;28;20231;-81
2022/01/07 13:09:21;;;;;;;15.60;5.80;;;;;;;;;;5002417;28;20268;-81
2022/01/07 13:11:49;;;;;;;13.63;6.17;;;;;;;;;;4996428;28;20341;-82
2022/01/07 13:14:17;;;;;;;12.33;5.50;;;;;;;;;;4983960;28;20675;-83
2022/01/07 13:16:44;;;;;;;14.70;5.37;;;;;;;;;;4984963;28;20209;-83
2022/01/07 13:19:14;;;;;;;10.90;4.00;;;;;;;;;;4984677;28;20368;-82
2022/01/07 13:21:42;;;;;;;11.23;4.13;;;;;;;;;;4978778;28;20226;-84
2022/01/07 13:24:13;;;;;;;18.20;7.07;;;;;;;;;;4980223;28;20221;-83
2022/01/07 13:26:40;;;;;;;11.93;4.80;;;;;;;;;;4981893;28;20224;-82
2022/01/07 13:29:18;;;;;;;8.43;4.77;;;;;;;;;;4990073;28;20220;-83
2022/01/07 13:31:46;;;;;;;12.20;5.50;;;;;;;;;;4981950;28;20228;-82
2022/01/07 13:34:21;;;;;;;8.13;3.87;;;;;;;;;;4982894;28;20235;-83
2022/01/07 13:36:49;;;;;;;6.33;3.13;;;;;;;;;;4985575;28;20216;-82
2022/01/07 13:39:16;;;;;;;6.90;2.60;;;;;;;;;;4984380;28;20256;-83
2022/01/07 13:41:54;;;;;;;2.97;1.70;;;;;;;;;;4985146;28;20236;-83
2022/01/07 13:44:21;;;;;;;8.40;3.60;;;;;;;;;;4986671;28;20282;-82
2022/01/07 13:46:52;;;;;;;8.63;3.53;;;;;;;;;;4983538;28;20550;-81
2022/01/07 13:49:21;;;;;;;7.17;4.23;;;;;;;;;;4980029;28;20210;-81
2022/01/07 13:51:52;;;;;;;9.17;4.97;;;;;;;;;;4984565;28;20237;-80
2022/01/07 13:54:21;;;;;;;7.37;3.70;;;;;;;;;;4977818;28;20201;-82
2022/01/07 13:56:56;;;;;;;15.83;7.00;;;;;;;;;;4985382;28;20264;-81
2022/01/07 13:59:23;;;;;;;22.30;10.07;;;;;;;;;;4990358;28;20212;-82
2022/01/07 14:01:55;;;;;;;10.47;4.43;;;;;;;;;;4978443;28;20316;-82
2022/01/07 14:04:39;;;;;;;10.07;3.47;;;;;;;;;;4984812;28;20290;-84
2022/01/07 14:07:20;;;;;;;4.93;2.40;;;;;;;;;;4987559;28;20205;-84
2022/01/07 14:10:01;;;;;;;7.90;3.50;;;;;;;;;;4989190;28;20540;-84
2022/01/07 14:12:28;;;;;;;6.60;3.50;;;;;;;;;;4994298;28;20210;-82
2022/01/07 14:15:03;;;;;;;4.90;2.90;;;;;;;;;;4987436;28;20746;-83
2022/01/07 14:17:31;;;;;;;7.63;4.63;;;;;;;;;;4996181;28;21191;-83
2022/01/07 14:20:02;;;;;;;10.23;5.10;;;;;;;;;;4995247;28;20217;-81
2022/01/07 14:22:29;;;;;;;10.43;4.80;;;;;;;;;;4987249;28;20296;-84
2022/01/07 14:24:56;;;;;;;14.17;8.90;;;;;;;;;;4988453;28;20217;-82
2022/01/07 14:27:31;;;;;;;58.23;23.83;;;;;;;;;;4990070;28;20202;-82
2022/01/07 14:29:59;;;;;;;43.67;18.53;;;;;;;;;;4985444;28;20741;-82
2022/01/07 14:32:26;;;;;;;24.20;10.40;;;;;;;;;;4990388;28;20272;-82
2022/01/07 14:34:57;;;;;;;16.53;8.43;;;;;;;;;;4992128;28;20197;-81
2022/01/07 14:37:26;;;;;;;11.80;5.20;;;;;;;;;;5005438;28;20192;-81
2022/01/07 14:39:53;;;;;;;15.20;6.93;;;;;;;;;;5003590;28;20307;-80
2022/01/07 14:42:21;;;;;;;27.90;11.87;;;;;;;;;;4992266;28;20212;-81
2022/01/07 14:44:48;;;;;;;15.27;8.37;;;;;;;;;;4990240;28;20236;-82